< < Back
Terminal Aerodrome Forecast


Current Version              Previous Versions:   1  2  3  4  5  6  7  8  9  

Terminal Aerodrome Forecast

182
FTUS42 KJAX 241700
TAFGNV
TAF
KGNV 241733Z 2418/2518 03005KT P6SM FEW250=



Latest METAR

584
SAUS70 KWBC 242300 RRE
MTRGNV
METAR KGNV 242253Z 05003KT 10SM CLR 20/12 A2995 RMK AO2 SLP141
T02000122


USA.gov is the U.S. government's official web portal to all federal, state and local government web resources and services.